Libby, Montana
Current Conditions -  °F | °C
As of 10:55 AM on Saturday 20 Dec 2014 (Local Time) from K65S Reporting Station
Overcast Overcast  
Wind Chill: 36°   Ceiling: 6000
Heat Index: 36°   Visibility: 10mi
Dew Point: 34°   Wind: 0mph
Humidity: 93%   Direction: NA
Pressure: 29.85"   Gusts: NA
Location:  48.39°N, 115.56°W
Report Text: K65S 201755Z AUTO 00000KT 10SM FEW041 OVC060 02/01 A2985 RMK AO2
Loading
Personal Weather Stations






























Interactive Weather Map New forecast layout! Learn more

10-Day Weather Forecast

Advertisements
Track Severe Weather on mobile